Barataria, Louisiana
Current Conditions -  °F | °C
As of 2:25 AM on Saturday 20 Dec 2014 (Local Time) from KNBG Reporting Station
Light Rain Light Rain  
Wind Chill: 50°   Ceiling: 4000
Heat Index: 50°   Visibility: 10mi
Dew Point: 48°   Wind: 13mph
Humidity: 93%   Direction: 60°ENE
Pressure: 30.05"   Gusts: NA
Location:  29.72°N, 90.12°W
Report Text: KNBG 200825Z AUTO 06011KT 10SM -RA FEW009 SCT018 OVC040 10/09 A3005 RMK AO2 P0000 T01000089 $
Loading
Personal Weather Stations






























Interactive Weather Map New forecast layout! Learn more

10-Day Weather Forecast

Advertisements
Track Severe Weather on mobile